sensor_id;sensor_type;location;lat;lon;timestamp;pressure;altitude;pressure_sealevel;temperature;humidity
13407;BME280;6774;48.208;10.766;2024-02-04T00:01:12;96636.38;;;6.39;87.10
13407;BME280;6774;48.208;10.766;2024-02-04T00:03:40;96638.16;;;6.38;86.54
13407;BME280;6774;48.208;10.766;2024-02-04T00:06:08;96639.19;;;6.56;86.19
13407;BME280;6774;48.208;10.766;2024-02-04T00:08:36;96633.09;;;6.46;86.82
13407;BME280;6774;48.208;10.766;2024-02-04T00:11:03;96629.72;;;6.25;87.18
13407;BME280;6774;48.208;10.766;2024-02-04T00:13:34;96629.75;;;6.35;87.10
13407;BME280;6774;48.208;10.766;2024-02-04T00:16:03;96629.25;;;6.50;86.64
13407;BME280;6774;48.208;10.766;2024-02-04T00:18:32;96608.69;;;6.55;86.40
13407;BME280;6774;48.208;10.766;2024-02-04T00:21:00;96603.44;;;6.65;85.96
13407;BME280;6774;48.208;10.766;2024-02-04T00:23:28;96603.31;;;6.67;85.14
13407;BME280;6774;48.208;10.766;2024-02-04T00:25:55;96593.91;;;6.54;86.21
13407;BME280;6774;48.208;10.766;2024-02-04T00:28:23;96596.81;;;6.61;85.80
13407;BME280;6774;48.208;10.766;2024-02-04T00:30:52;96576.53;;;6.73;85.17
13407;BME280;6774;48.208;10.766;2024-02-04T00:33:23;96569.09;;;6.68;84.80
13407;BME280;6774;48.208;10.766;2024-02-04T00:35:51;96574.59;;;6.75;84.60
13407;BME280;6774;48.208;10.766;2024-02-04T00:38:19;96569.09;;;6.97;84.07
13407;BME280;6774;48.208;10.766;2024-02-04T00:40:47;96577.94;;;6.87;83.64
13407;BME280;6774;48.208;10.766;2024-02-04T00:43:14;96564.94;;;6.85;83.31
13407;BME280;6774;48.208;10.766;2024-02-04T00:45:42;96557.22;;;6.74;84.13
13407;BME280;6774;48.208;10.766;2024-02-04T00:48:10;96561.91;;;6.99;83.42
13407;BME280;6774;48.208;10.766;2024-02-04T00:50:39;96559.44;;;6.78;84.11
13407;BME280;6774;48.208;10.766;2024-02-04T00:53:07;96563.56;;;6.81;83.77
13407;BME280;6774;48.208;10.766;2024-02-04T00:55:35;96572.41;;;6.80;83.66
13407;BME280;6774;48.208;10.766;2024-02-04T00:58:03;96570.31;;;6.74;84.13
13407;BME280;6774;48.208;10.766;2024-02-04T01:00:31;96578.19;;;6.83;83.74
13407;BME280;6774;48.208;10.766;2024-02-04T01:02:59;96566.88;;;6.83;83.64
13407;BME280;6774;48.208;10.766;2024-02-04T01:05:27;96560.66;;;6.84;83.66
13407;BME280;6774;48.208;10.766;2024-02-04T01:07:56;96568.38;;;6.76;83.25
13407;BME280;6774;48.208;10.766;2024-02-04T01:10:24;96569.91;;;6.69;83.61
13407;BME280;6774;48.208;10.766;2024-02-04T01:12:51;96566.03;;;6.73;83.58
13407;BME280;6774;48.208;10.766;2024-02-04T01:15:19;96565.75;;;6.76;83.71
13407;BME280;6774;48.208;10.766;2024-02-04T01:17:47;96550.72;;;6.59;83.28
13407;BME280;6774;48.208;10.766;2024-02-04T01:20:15;96555.84;;;6.70;82.90
13407;BME280;6774;48.208;10.766;2024-02-04T01:22:43;96548.38;;;6.65;82.91
13407;BME280;6774;48.208;10.766;2024-02-04T01:25:12;96552.09;;;6.63;82.95
13407;BME280;6774;48.208;10.766;2024-02-04T01:27:40;96546.44;;;6.57;83.16
13407;BME280;6774;48.208;10.766;2024-02-04T01:30:08;96557.63;;;6.60;83.00
13407;BME280;6774;48.208;10.766;2024-02-04T01:32:36;96561.63;;;6.54;82.78
13407;BME280;6774;48.208;10.766;2024-02-04T01:35:06;96557.63;;;6.60;82.88
13407;BME280;6774;48.208;10.766;2024-02-04T01:37:34;96552.22;;;6.42;83.42
13407;BME280;6774;48.208;10.766;2024-02-04T01:40:03;96556.38;;;6.44;83.55
13407;BME280;6774;48.208;10.766;2024-02-04T01:42:33;96555.53;;;6.53;83.20
13407;BME280;6774;48.208;10.766;2024-02-04T01:45:01;96553.34;;;6.59;83.05
13407;BME280;6774;48.208;10.766;2024-02-04T01:47:29;96559.81;;;6.54;82.99
13407;BME280;6774;48.208;10.766;2024-02-04T01:49:57;96564.09;;;6.55;82.93
13407;BME280;6774;48.208;10.766;2024-02-04T01:52:25;96570.19;;;6.66;82.73
13407;BME280;6774;48.208;10.766;2024-02-04T01:54:53;96576.53;;;6.63;82.89
13407;BME280;6774;48.208;10.766;2024-02-04T01:57:21;96579.00;;;6.65;82.66
13407;BME280;6774;48.208;10.766;2024-02-04T01:59:52;96577.91;;;6.57;82.92
13407;BME280;6774;48.208;10.766;2024-02-04T02:02:23;96588.38;;;6.57;83.72
13407;BME280;6774;48.208;10.766;2024-02-04T02:04:50;96581.25;;;6.60;84.17
13407;BME280;6774;48.208;10.766;2024-02-04T02:07:19;96568.81;;;6.52;83.71
13407;BME280;6774;48.208;10.766;2024-02-04T02:09:48;96576.00;;;6.69;83.08
13407;BME280;6774;48.208;10.766;2024-02-04T02:12:18;96557.47;;;6.32;83.48
13407;BME280;6774;48.208;10.766;2024-02-04T02:14:50;96547.28;;;6.68;83.21
13407;BME280;6774;48.208;10.766;2024-02-04T02:17:25;96534.56;;;6.44;83.53
13407;BME280;6774;48.208;10.766;2024-02-04T02:20:01;96527.38;;;6.55;83.74
13407;BME280;6774;48.208;10.766;2024-02-04T02:22:38;96526.41;;;6.56;83.80
13407;BME280;6774;48.208;10.766;2024-02-04T02:25:09;96534.84;;;6.60;83.69
13407;BME280;6774;48.208;10.766;2024-02-04T02:27:46;96518.28;;;6.60;83.46
13407;BME280;6774;48.208;10.766;2024-02-04T02:30:14;96529.03;;;6.76;83.44
13407;BME280;6774;48.208;10.766;2024-02-04T02:32:43;96525.88;;;6.82;82.79
13407;BME280;6774;48.208;10.766;2024-02-04T02:35:12;96528.50;;;6.82;83.04
13407;BME280;6774;48.208;10.766;2024-02-04T02:37:44;96529.16;;;6.84;82.64
13407;BME280;6774;48.208;10.766;2024-02-04T02:40:21;96530.81;;;6.85;82.46
13407;BME280;6774;48.208;10.766;2024-02-04T02:42:52;96542.03;;;6.77;82.49
13407;BME280;6774;48.208;10.766;2024-02-04T02:45:21;96539.25;;;6.98;82.08
13407;BME280;6774;48.208;10.766;2024-02-04T02:47:52;96548.25;;;6.96;82.35
13407;BME280;6774;48.208;10.766;2024-02-04T02:50:22;96539.53;;;6.95;82.27
13407;BME280;6774;48.208;10.766;2024-02-04T02:52:50;96547.00;;;6.80;82.23
13407;BME280;6774;48.208;10.766;2024-02-04T02:55:19;96556.13;;;6.86;82.94
13407;BME280;6774;48.208;10.766;2024-02-04T02:57:46;96547.25;;;6.48;84.43
13407;BME280;6774;48.208;10.766;2024-02-04T03:00:14;96548.13;;;6.59;84.45
13407;BME280;6774;48.208;10.766;2024-02-04T03:02:42;96552.38;;;6.60;84.68
13407;BME280;6774;48.208;10.766;2024-02-04T03:05:12;96556.66;;;6.80;83.96
13407;BME280;6774;48.208;10.766;2024-02-04T03:07:40;96559.44;;;6.88;83.58
13407;BME280;6774;48.208;10.766;2024-02-04T03:10:08;96570.16;;;6.95;83.07
13407;BME280;6774;48.208;10.766;2024-02-04T03:12:38;96577.06;;;6.76;83.94
13407;BME280;6774;48.208;10.766;2024-02-04T03:15:06;96583.16;;;6.67;83.79
13407;BME280;6774;48.208;10.766;2024-02-04T03:17:34;96574.06;;;6.62;83.90
13407;BME280;6774;48.208;10.766;2024-02-04T03:20:03;96584.81;;;6.59;84.60
13407;BME280;6774;48.208;10.766;2024-02-04T03:22:31;96579.00;;;6.45;84.80
13407;BME280;6774;48.208;10.766;2024-02-04T03:24:59;96574.75;;;6.73;84.54
13407;BME280;6774;48.208;10.766;2024-02-04T03:27:27;96568.22;;;6.58;84.33
13407;BME280;6774;48.208;10.766;2024-02-04T03:29:56;96559.69;;;6.66;84.15
13407;BME280;6774;48.208;10.766;2024-02-04T03:32:24;96554.28;;;6.67;84.16
13407;BME280;6774;48.208;10.766;2024-02-04T03:34:52;96560.50;;;6.37;85.01
13407;BME280;6774;48.208;10.766;2024-02-04T03:37:20;96569.91;;;6.69;84.49
13407;BME280;6774;48.208;10.766;2024-02-04T03:39:48;96571.56;;;6.50;84.49
13407;BME280;6774;48.208;10.766;2024-02-04T03:42:16;96564.66;;;6.49;84.89
13407;BME280;6774;48.208;10.766;2024-02-04T03:44:46;96563.84;;;6.59;84.07
13407;BME280;6774;48.208;10.766;2024-02-04T03:47:15;96549.19;;;6.66;83.85
13407;BME280;6774;48.208;10.766;2024-02-04T03:49:43;96556.38;;;6.73;83.75
13407;BME280;6774;48.208;10.766;2024-02-04T03:52:11;96557.19;;;6.83;83.33
13407;BME280;6774;48.208;10.766;2024-02-04T03:54:39;96560.50;;;6.66;83.02
13407;BME280;6774;48.208;10.766;2024-02-04T03:57:07;96562.72;;;6.61;84.00
13407;BME280;6774;48.208;10.766;2024-02-04T03:59:35;96546.44;;;6.87;82.96
13407;BME280;6774;48.208;10.766;2024-02-04T04:02:02;96544.78;;;6.66;83.28
13407;BME280;6774;48.208;10.766;2024-02-04T04:04:32;96540.50;;;6.75;82.73
13407;BME280;6774;48.208;10.766;2024-02-04T04:07:00;96552.94;;;6.73;82.18
13407;BME280;6774;48.208;10.766;2024-02-04T04:09:28;96557.63;;;6.79;82.89
13407;BME280;6774;48.208;10.766;2024-02-04T04:11:55;96551.81;;;6.85;82.60
13407;BME280;6774;48.208;10.766;2024-02-04T04:14:23;96543.69;;;6.98;81.88
13407;BME280;6774;48.208;10.766;2024-02-04T04:16:51;96552.75;;;7.03;81.17
13407;BME280;6774;48.208;10.766;2024-02-04T04:19:19;96548.63;;;7.10;81.36
13407;BME280;6774;48.208;10.766;2024-02-04T04:21:48;96556.91;;;7.16;80.77
13407;BME280;6774;48.208;10.766;2024-02-04T04:24:16;96548.91;;;7.07;80.80
13407;BME280;6774;48.208;10.766;2024-02-04T04:26:46;96554.41;;;7.24;80.59
13407;BME280;6774;48.208;10.766;2024-02-04T04:29:14;96554.28;;;7.16;80.77
13407;BME280;6774;48.208;10.766;2024-02-04T04:31:42;96557.75;;;7.16;80.84
13407;BME280;6774;48.208;10.766;2024-02-04T04:34:10;96550.97;;;7.23;80.87
13407;BME280;6774;48.208;10.766;2024-02-04T04:36:38;96556.91;;;7.16;80.97
13407;BME280;6774;48.208;10.766;2024-02-04T04:39:07;96557.47;;;7.09;81.10
13407;BME280;6774;48.208;10.766;2024-02-04T04:41:35;96554.00;;;7.09;80.99
13407;BME280;6774;48.208;10.766;2024-02-04T04:44:03;96545.31;;;7.08;81.03
13407;BME280;6774;48.208;10.766;2024-02-04T04:46:31;96551.69;;;6.96;81.61
13407;BME280;6774;48.208;10.766;2024-02-04T04:48:59;96546.56;;;6.95;81.93
13407;BME280;6774;48.208;10.766;2024-02-04T04:51:27;96549.91;;;6.68;82.47
13407;BME280;6774;48.208;10.766;2024-02-04T04:53:55;96546.31;;;6.88;82.18
13407;BME280;6774;48.208;10.766;2024-02-04T04:56:24;96535.66;;;6.90;82.14
13407;BME280;6774;48.208;10.766;2024-02-04T04:58:52;96543.53;;;6.90;82.36
13407;BME280;6774;48.208;10.766;2024-02-04T05:01:20;96549.75;;;6.79;82.47
13407;BME280;6774;48.208;10.766;2024-02-04T05:03:48;96547.81;;;6.62;83.36
13407;BME280;6774;48.208;10.766;2024-02-04T05:06:15;96553.06;;;6.71;83.82
13407;BME280;6774;48.208;10.766;2024-02-04T05:08:43;96551.00;;;6.75;83.32
13407;BME280;6774;48.208;10.766;2024-02-04T05:11:11;96540.94;;;6.70;83.71
13407;BME280;6774;48.208;10.766;2024-02-04T05:13:40;96536.50;;;6.61;84.07
13407;BME280;6774;48.208;10.766;2024-02-04T05:16:08;96522.56;;;6.80;83.44
13407;BME280;6774;48.208;10.766;2024-02-04T05:18:36;96521.72;;;6.89;82.71
13407;BME280;6774;48.208;10.766;2024-02-04T05:21:04;96524.34;;;6.89;82.81
13407;BME280;6774;48.208;10.766;2024-02-04T05:23:32;96530.16;;;6.83;83.47
13407;BME280;6774;48.208;10.766;2024-02-04T05:26:02;96542.88;;;6.68;83.80
13407;BME280;6774;48.208;10.766;2024-02-04T05:28:30;96551.00;;;6.65;84.16
13407;BME280;6774;48.208;10.766;2024-02-04T05:31:01;96529.59;;;6.89;83.43
13407;BME280;6774;48.208;10.766;2024-02-04T05:33:29;96520.91;;;6.89;83.89
13407;BME280;6774;48.208;10.766;2024-02-04T05:35:57;96526.53;;;6.84;84.20
13407;BME280;6774;48.208;10.766;2024-02-04T05:38:25;96512.47;;;6.85;84.14
13407;BME280;6774;48.208;10.766;2024-02-04T05:40:53;96509.31;;;6.72;84.83
13407;BME280;6774;48.208;10.766;2024-02-04T05:43:20;96510.00;;;6.74;84.98
13407;BME280;6774;48.208;10.766;2024-02-04T05:45:48;96514.56;;;6.72;84.73
13407;BME280;6774;48.208;10.766;2024-02-04T05:48:18;96524.91;;;6.54;85.04
13407;BME280;6774;48.208;10.766;2024-02-04T05:50:46;96508.34;;;6.53;84.83
13407;BME280;6774;48.208;10.766;2024-02-04T05:53:14;96506.41;;;6.55;84.68
13407;BME280;6774;48.208;10.766;2024-02-04T05:55:41;96514.25;;;6.17;86.05
13407;BME280;6774;48.208;10.766;2024-02-04T05:58:09;96524.28;;;6.12;86.80
13407;BME280;6774;48.208;10.766;2024-02-04T06:00:40;96532.59;;;6.17;86.95
13407;BME280;6774;48.208;10.766;2024-02-04T06:03:08;96532.03;;;6.04;87.02
13407;BME280;6774;48.208;10.766;2024-02-04T06:05:37;96535.59;;;6.03;87.84
13407;BME280;6774;48.208;10.766;2024-02-04T06:08:05;96523.56;;;5.90;88.60
13407;BME280;6774;48.208;10.766;2024-02-04T06:10:33;96538.56;;;5.88;88.72
13407;BME280;6774;48.208;10.766;2024-02-04T06:13:01;96543.03;;;5.97;87.99
13407;BME280;6774;48.208;10.766;2024-02-04T06:15:29;96543.56;;;5.91;88.44
13407;BME280;6774;48.208;10.766;2024-02-04T06:17:57;96544.31;;;5.82;88.72
13407;BME280;6774;48.208;10.766;2024-02-04T06:20:25;96541.88;;;5.50;89.92
13407;BME280;6774;48.208;10.766;2024-02-04T06:22:54;96552.56;;;5.68;90.07
13407;BME280;6774;48.208;10.766;2024-02-04T06:25:22;96561.38;;;5.67;89.82
13407;BME280;6774;48.208;10.766;2024-02-04T06:27:49;96568.97;;;5.70;89.72
13407;BME280;6774;48.208;10.766;2024-02-04T06:30:17;96562.25;;;5.77;89.24
13407;BME280;6774;48.208;10.766;2024-02-04T06:32:47;96563.09;;;5.57;89.62
13407;BME280;6774;48.208;10.766;2024-02-04T06:35:15;96576.72;;;5.51;90.03
13407;BME280;6774;48.208;10.766;2024-02-04T06:37:43;96578.28;;;5.32;90.41
13407;BME280;6774;48.208;10.766;2024-02-04T06:40:13;96593.06;;;5.43;90.80
13407;BME280;6774;48.208;10.766;2024-02-04T06:42:41;96593.22;;;5.41;91.12
13407;BME280;6774;48.208;10.766;2024-02-04T06:45:09;96598.16;;;5.45;91.04
13407;BME280;6774;48.208;10.766;2024-02-04T06:47:37;96592.75;;;5.36;91.20
13407;BME280;6774;48.208;10.766;2024-02-04T06:50:07;96600.88;;;5.33;91.16
13407;BME280;6774;48.208;10.766;2024-02-04T06:52:35;96589.13;;;5.28;91.05
13407;BME280;6774;48.208;10.766;2024-02-04T06:55:04;96579.34;;;5.30;90.59
13407;BME280;6774;48.208;10.766;2024-02-04T06:57:33;96565.97;;;5.54;90.15
13407;BME280;6774;48.208;10.766;2024-02-04T07:00:02;96566.50;;;5.48;89.69
13407;BME280;6774;48.208;10.766;2024-02-04T07:02:32;96564.84;;;5.47;90.00
13407;BME280;6774;48.208;10.766;2024-02-04T07:04:59;96568.50;;;5.65;89.46
13407;BME280;6774;48.208;10.766;2024-02-04T07:07:27;96555.06;;;5.79;88.64
13407;BME280;6774;48.208;10.766;2024-02-04T07:09:56;96572.41;;;5.70;88.81
13407;BME280;6774;48.208;10.766;2024-02-04T07:12:24;96569.06;;;5.59;89.18
13407;BME280;6774;48.208;10.766;2024-02-04T07:14:53;96577.09;;;5.67;88.99
13407;BME280;6774;48.208;10.766;2024-02-04T07:17:21;96565.56;;;5.79;88.79
13407;BME280;6774;48.208;10.766;2024-02-04T07:19:49;96557.78;;;5.68;88.28
13407;BME280;6774;48.208;10.766;2024-02-04T07:22:17;96558.47;;;6.01;87.63
13407;BME280;6774;48.208;10.766;2024-02-04T07:24:45;96551.84;;;5.96;87.37
13407;BME280;6774;48.208;10.766;2024-02-04T07:27:13;96561.81;;;6.12;86.99
13407;BME280;6774;48.208;10.766;2024-02-04T07:29:41;96567.63;;;6.16;86.40
13407;BME280;6774;48.208;10.766;2024-02-04T07:32:10;96574.63;;;6.06;86.42
13407;BME280;6774;48.208;10.766;2024-02-04T07:34:38;96576.78;;;6.31;85.35
13407;BME280;6774;48.208;10.766;2024-02-04T07:37:06;96584.34;;;6.34;85.78
13407;BME280;6774;48.208;10.766;2024-02-04T07:39:33;96585.41;;;6.12;86.61
13407;BME280;6774;48.208;10.766;2024-02-04T07:42:02;96580.59;;;6.17;86.25
13407;BME280;6774;48.208;10.766;2024-02-04T07:44:29;96580.72;;;6.16;86.48
13407;BME280;6774;48.208;10.766;2024-02-04T07:46:57;96584.97;;;6.07;87.02
13407;BME280;6774;48.208;10.766;2024-02-04T07:49:26;96576.97;;;6.09;86.53
13407;BME280;6774;48.208;10.766;2024-02-04T07:51:54;96566.53;;;6.18;86.30
13407;BME280;6774;48.208;10.766;2024-02-04T07:54:22;96589.41;;;6.07;86.13
13407;BME280;6774;48.208;10.766;2024-02-04T07:56:50;96580.91;;;6.24;86.48
13407;BME280;6774;48.208;10.766;2024-02-04T07:59:18;96571.91;;;6.17;86.37
13407;BME280;6774;48.208;10.766;2024-02-04T08:01:45;96579.00;;;6.45;85.33
13407;BME280;6774;48.208;10.766;2024-02-04T08:04:13;96580.41;;;6.69;84.59
13407;BME280;6774;48.208;10.766;2024-02-04T08:06:43;96578.59;;;6.40;85.58
13407;BME280;6774;48.208;10.766;2024-02-04T08:09:11;96582.06;;;6.60;85.35
13407;BME280;6774;48.208;10.766;2024-02-04T08:11:39;96580.97;;;6.92;84.31
13407;BME280;6774;48.208;10.766;2024-02-04T08:14:07;96583.72;;;6.90;84.27
13407;BME280;6774;48.208;10.766;2024-02-04T08:16:35;96596.16;;;6.88;84.62
13407;BME280;6774;48.208;10.766;2024-02-04T08:19:03;96583.72;;;7.09;83.80
13407;BME280;6774;48.208;10.766;2024-02-04T08:21:33;96588.13;;;7.19;83.74
13407;BME280;6774;48.208;10.766;2024-02-04T08:24:02;96600.84;;;7.13;83.51
13407;BME280;6774;48.208;10.766;2024-02-04T08:26:30;96586.78;;;6.95;85.18
13407;BME280;6774;48.208;10.766;2024-02-04T08:28:58;96577.09;;;6.96;85.28
13407;BME280;6774;48.208;10.766;2024-02-04T08:31:26;96559.41;;;7.17;84.06
13407;BME280;6774;48.208;10.766;2024-02-04T08:33:54;96569.34;;;6.84;84.42
13407;BME280;6774;48.208;10.766;2024-02-04T08:36:21;96560.78;;;6.82;85.09
13407;BME280;6774;48.208;10.766;2024-02-04T08:38:49;96570.44;;;7.21;84.29
13407;BME280;6774;48.208;10.766;2024-02-04T08:41:19;96564.03;;;7.52;83.75
13407;BME280;6774;48.208;10.766;2024-02-04T08:43:47;96555.88;;;7.46;83.28
13407;BME280;6774;48.208;10.766;2024-02-04T08:46:14;96557.38;;;7.48;82.25
13407;BME280;6774;48.208;10.766;2024-02-04T08:48:42;96547.66;;;7.58;83.65
13407;BME280;6774;48.208;10.766;2024-02-04T08:51:11;96531.13;;;7.48;82.75
13407;BME280;6774;48.208;10.766;2024-02-04T08:53:39;96543.28;;;7.49;82.34
13407;BME280;6774;48.208;10.766;2024-02-04T08:56:07;96549.97;;;7.34;83.43
13407;BME280;6774;48.208;10.766;2024-02-04T08:58:36;96554.88;;;7.56;82.96
13407;BME280;6774;48.208;10.766;2024-02-04T09:01:05;96570.44;;;7.21;83.93
13407;BME280;6774;48.208;10.766;2024-02-04T09:03:33;96564.09;;;7.23;84.91
13407;BME280;6774;48.208;10.766;2024-02-04T09:06:01;96556.69;;;7.46;84.27
13407;BME280;6774;48.208;10.766;2024-02-04T09:08:29;96571.78;;;7.44;83.69
13407;BME280;6774;48.208;10.766;2024-02-04T09:10:57;96564.34;;;7.30;84.13
13407;BME280;6774;48.208;10.766;2024-02-04T09:13:25;96553.50;;;7.52;84.33
13407;BME280;6774;48.208;10.766;2024-02-04T09:15:54;96551.88;;;7.41;83.52
13407;BME280;6774;48.208;10.766;2024-02-04T09:18:22;96546.66;;;7.79;82.77
13407;BME280;6774;48.208;10.766;2024-02-04T09:20:50;96555.31;;;7.89;81.76
13407;BME280;6774;48.208;10.766;2024-02-04T09:23:19;96545.00;;;8.05;81.22
13407;BME280;6774;48.208;10.766;2024-02-04T09:25:47;96539.47;;;8.26;80.97
13407;BME280;6774;48.208;10.766;2024-02-04T09:28:15;96544.81;;;8.44;80.35
13407;BME280;6774;48.208;10.766;2024-02-04T09:30:43;96544.72;;;8.08;81.35
13407;BME280;6774;48.208;10.766;2024-02-04T09:33:13;96551.19;;;8.32;80.74
13407;BME280;6774;48.208;10.766;2024-02-04T09:35:41;96551.03;;;8.15;81.84
13407;BME280;6774;48.208;10.766;2024-02-04T09:38:09;96545.09;;;8.31;81.03
13407;BME280;6774;48.208;10.766;2024-02-04T09:40:40;96529.91;;;8.35;81.38
13407;BME280;6774;48.208;10.766;2024-02-04T09:43:08;96527.16;;;8.26;81.93
13407;BME280;6774;48.208;10.766;2024-02-04T09:45:37;96529.22;;;8.33;81.24
13407;BME280;6774;48.208;10.766;2024-02-04T09:48:06;96529.91;;;8.35;81.25
13407;BME280;6774;48.208;10.766;2024-02-04T09:50:37;96537.38;;;8.30;81.11
13407;BME280;6774;48.208;10.766;2024-02-04T09:53:07;96550.09;;;8.34;81.14
13407;BME280;6774;48.208;10.766;2024-02-04T09:55:38;96540.31;;;8.54;80.75
13407;BME280;6774;48.208;10.766;2024-02-04T09:58:07;96538.50;;;8.27;81.06
13407;BME280;6774;48.208;10.766;2024-02-04T10:00:35;96540.00;;;8.57;82.07
13407;BME280;6774;48.208;10.766;2024-02-04T10:03:04;96543.28;;;8.59;80.34
13407;BME280;6774;48.208;10.766;2024-02-04T10:05:32;96536.88;;;7.98;81.47
13407;BME280;6774;48.208;10.766;2024-02-04T10:08:01;96543.47;;;8.30;79.83
13407;BME280;6774;48.208;10.766;2024-02-04T10:10:29;96562.97;;;8.37;80.94
13407;BME280;6774;48.208;10.766;2024-02-04T10:13:05;96566.63;;;8.90;78.83
13407;BME280;6774;48.208;10.766;2024-02-04T10:15:33;96563.69;;;8.02;80.40
13407;BME280;6774;48.208;10.766;2024-02-04T10:18:03;96569.91;;;8.01;81.19
13407;BME280;6774;48.208;10.766;2024-02-04T10:20:31;96571.28;;;8.33;80.03
13407;BME280;6774;48.208;10.766;2024-02-04T10:23:00;96567.38;;;8.64;81.25
13407;BME280;6774;48.208;10.766;2024-02-04T10:25:28;96574.47;;;9.43;77.73
13407;BME280;6774;48.208;10.766;2024-02-04T10:27:56;96554.03;;;9.71;76.00
13407;BME280;6774;48.208;10.766;2024-02-04T10:30:25;96541.19;;;10.52;74.63
13407;BME280;6774;48.208;10.766;2024-02-04T10:32:53;96535.31;;;9.82;74.82
13407;BME280;6774;48.208;10.766;2024-02-04T10:35:22;96549.84;;;9.94;75.82
13407;BME280;6774;48.208;10.766;2024-02-04T10:37:51;96533.00;;;9.79;76.41
13407;BME280;6774;48.208;10.766;2024-02-04T10:40:20;96554.34;;;10.02;75.50
13407;BME280;6774;48.208;10.766;2024-02-04T10:42:48;96547.47;;;9.75;75.17
13407;BME280;6774;48.208;10.766;2024-02-04T10:45:19;96549.00;;;9.60;75.63
13407;BME280;6774;48.208;10.766;2024-02-04T10:47:56;96537.34;;;9.96;74.52
13407;BME280;6774;48.208;10.766;2024-02-04T10:50:24;96550.59;;;9.45;75.91
13407;BME280;6774;48.208;10.766;2024-02-04T10:52:57;96547.03;;;9.54;76.40
13407;BME280;6774;48.208;10.766;2024-02-04T10:55:30;96547.06;;;9.62;75.30
13407;BME280;6774;48.208;10.766;2024-02-04T10:58:20;96553.00;;;8.76;79.20
13407;BME280;6774;48.208;10.766;2024-02-04T11:00:50;96556.75;;;8.56;80.91
13407;BME280;6774;48.208;10.766;2024-02-04T11:03:18;96550.09;;;8.34;80.45
13407;BME280;6774;48.208;10.766;2024-02-04T11:05:49;96535.22;;;9.14;79.85
13407;BME280;6774;48.208;10.766;2024-02-04T11:08:18;96522.63;;;8.46;79.86
13407;BME280;6774;48.208;10.766;2024-02-04T11:10:48;96517.59;;;8.53;78.92
13407;BME280;6774;48.208;10.766;2024-02-04T11:13:38;96509.91;;;8.77;80.15
13407;BME280;6774;48.208;10.766;2024-02-04T11:16:16;96495.88;;;8.51;78.78
13407;BME280;6774;48.208;10.766;2024-02-04T11:19:01;96492.41;;;9.12;79.06
13407;BME280;6774;48.208;10.766;2024-02-04T11:21:48;96488.59;;;9.32;76.14
13407;BME280;6774;48.208;10.766;2024-02-04T11:24:32;96491.91;;;9.08;77.33
13407;BME280;6774;48.208;10.766;2024-02-04T11:27:04;96493.03;;;9.06;77.36
13407;BME280;6774;48.208;10.766;2024-02-04T11:29:32;96475.81;;;8.94;78.67
13407;BME280;6774;48.208;10.766;2024-02-04T11:32:02;96477.53;;;9.03;77.71
13407;BME280;6774;48.208;10.766;2024-02-04T11:34:32;96474.72;;;8.96;78.44
13407;BME280;6774;48.208;10.766;2024-02-04T11:37:00;96469.81;;;9.27;77.17
13407;BME280;6774;48.208;10.766;2024-02-04T11:39:28;96464.84;;;9.24;76.54
13407;BME280;6774;48.208;10.766;2024-02-04T11:41:57;96454.88;;;9.10;79.10
13407;BME280;6774;48.208;10.766;2024-02-04T11:44:26;96453.75;;;9.12;77.90
13407;BME280;6774;48.208;10.766;2024-02-04T11:46:55;96446.84;;;9.46;77.46
13407;BME280;6774;48.208;10.766;2024-02-04T11:49:25;96436.88;;;9.31;76.35
13407;BME280;6774;48.208;10.766;2024-02-04T11:51:54;96423.78;;;9.05;77.67
13407;BME280;6774;48.208;10.766;2024-02-04T11:54:22;96427.00;;;9.25;78.35
13407;BME280;6774;48.208;10.766;2024-02-04T11:56:50;96422.41;;;9.27;77.20
13407;BME280;6774;48.208;10.766;2024-02-04T11:59:20;96431.56;;;9.23;78.55
13407;BME280;6774;48.208;10.766;2024-02-04T12:01:53;96418.50;;;9.39;78.12
13407;BME280;6774;48.208;10.766;2024-02-04T12:04:22;96431.19;;;9.10;77.84
13407;BME280;6774;48.208;10.766;2024-02-04T12:06:50;96421.69;;;8.91;78.58
13407;BME280;6774;48.208;10.766;2024-02-04T12:09:19;96431.06;;;8.94;79.24
13407;BME280;6774;48.208;10.766;2024-02-04T12:11:48;96422.78;;;9.40;78.74
13407;BME280;6774;48.208;10.766;2024-02-04T12:14:17;96424.75;;;9.38;78.85
13407;BME280;6774;48.208;10.766;2024-02-04T12:16:46;96432.44;;;9.32;77.98
13407;BME280;6774;48.208;10.766;2024-02-04T12:19:15;96399.97;;;9.15;78.12
13407;BME280;6774;48.208;10.766;2024-02-04T12:21:43;96383.81;;;9.52;77.58
13407;BME280;6774;48.208;10.766;2024-02-04T12:24:14;96376.50;;;9.38;76.97
13407;BME280;6774;48.208;10.766;2024-02-04T12:26:42;96382.31;;;9.50;76.95
13407;BME280;6774;48.208;10.766;2024-02-04T12:29:13;96369.19;;;9.66;76.14
13407;BME280;6774;48.208;10.766;2024-02-04T12:31:41;96377.63;;;9.78;76.30
13407;BME280;6774;48.208;10.766;2024-02-04T12:34:09;96360.03;;;10.03;75.20
13407;BME280;6774;48.208;10.766;2024-02-04T12:36:40;96362.75;;;10.27;74.39
13407;BME280;6774;48.208;10.766;2024-02-04T12:39:10;96355.28;;;10.06;76.19
13407;BME280;6774;48.208;10.766;2024-02-04T12:41:39;96359.06;;;10.12;77.29
13407;BME280;6774;48.208;10.766;2024-02-04T12:44:06;96378.81;;;9.91;76.40
13407;BME280;6774;48.208;10.766;2024-02-04T12:46:34;96385.38;;;9.79;77.24
13407;BME280;6774;48.208;10.766;2024-02-04T12:49:02;96388.00;;;9.71;77.23
13407;BME280;6774;48.208;10.766;2024-02-04T12:51:33;96367.41;;;9.32;77.64
13407;BME280;6774;48.208;10.766;2024-02-04T12:54:04;96356.81;;;9.58;79.07
13407;BME280;6774;48.208;10.766;2024-02-04T12:56:43;96375.63;;;9.63;76.63
13407;BME280;6774;48.208;10.766;2024-02-04T12:59:12;96352.69;;;9.56;78.05
13407;BME280;6774;48.208;10.766;2024-02-04T13:01:39;96362.63;;;9.70;78.31
13407;BME280;6774;48.208;10.766;2024-02-04T13:04:08;96377.91;;;9.58;76.46
13407;BME280;6774;48.208;10.766;2024-02-04T13:06:40;96361.34;;;9.90;75.25
13407;BME280;6774;48.208;10.766;2024-02-04T13:09:09;96353.19;;;9.59;77.32
13407;BME280;6774;48.208;10.766;2024-02-04T13:11:38;96353.09;;;9.85;77.27
13407;BME280;6774;48.208;10.766;2024-02-04T13:14:05;96370.91;;;10.00;76.32
13407;BME280;6774;48.208;10.766;2024-02-04T13:16:33;96369.28;;;10.07;76.93
13407;BME280;6774;48.208;10.766;2024-02-04T13:19:02;96357.13;;;10.30;76.02